Time;durP1;ratioP1;P1;durP2;ratioP2;P2;SDS_P1;SDS_P2;PMS_P1;PMS_P2;Temp;Humidity;BMP_temperature;BMP_pressure;BME280_temperature;BME280_humidity;BME280_pressure;Samples;Min_cycle;Max_cycle;Signal;HPM_P1;HPM_P2
2023/01/24 00:01:16;;;;;;;13.90;9.98;;;;;;;3.04;97.85;103720.16;4717324;30;20064;-62
2023/01/24 00:03:43;;;;;;;13.23;10.57;;;;;;;3.01;98.63;103720.44;4718208;30;20110;-63
2023/01/24 00:06:12;;;;;;;12.88;10.02;;;;;;;3.02;98.87;103723.00;4713408;30;20564;-64
2023/01/24 00:08:39;;;;;;;14.50;11.15;;;;;;;3.05;98.75;103711.06;4709566;30;20136;-63
2023/01/24 00:11:09;;;;;;;13.07;10.48;;;;;;;3.07;98.78;103717.16;4718987;30;20125;-64
2023/01/24 00:13:38;;;;;;;13.27;10.43;;;;;;;3.08;98.32;103721.53;4714898;30;20117;-63
2023/01/24 00:16:08;;;;;;;14.20;10.75;;;;;;;3.01;98.20;103723.13;4711571;30;20053;-60
2023/01/24 00:18:36;;;;;;;14.75;11.40;;;;;;;2.96;98.47;103729.81;4715110;30;20057;-61
2023/01/24 00:21:09;;;;;;;14.18;10.75;;;;;;;2.95;99.58;103722.72;4701751;30;20052;-62
2023/01/24 00:23:37;;;;;;;14.10;11.35;;;;;;;3.00;98.67;103719.59;4718910;30;20459;-62
2023/01/24 00:26:05;;;;;;;14.80;12.18;;;;;;;2.99;98.88;103710.66;4718038;30;20056;-61
2023/01/24 00:28:33;;;;;;;14.73;11.00;;;;;;;2.99;99.56;103717.91;4703563;30;20057;-62
2023/01/24 00:31:01;;;;;;;14.35;11.73;;;;;;;2.96;99.08;103713.66;4714312;30;20068;-64
2023/01/24 00:33:31;;;;;;;15.27;12.05;;;;;;;2.98;99.82;103700.91;4705946;30;20071;-62
2023/01/24 00:35:58;;;;;;;12.32;10.20;;;;;;;2.98;99.02;103690.13;4714702;30;20120;-62
2023/01/24 00:38:28;;;;;;;14.38;10.88;;;;;;;2.99;98.80;103693.66;4686272;30;20058;-62
2023/01/24 00:40:57;;;;;;;12.95;10.13;;;;;;;2.98;98.56;103692.81;4710064;30;20479;-62
2023/01/24 00:43:28;;;;;;;13.48;9.90;;;;;;;2.96;98.88;103692.13;4700937;30;20060;-64
2023/01/24 00:45:56;;;;;;;13.10;9.88;;;;;;;2.92;98.98;103690.69;4714946;30;20049;-63
2023/01/24 00:48:24;;;;;;;13.30;9.98;;;;;;;2.98;98.95;103694.63;4714953;30;20057;-63
2023/01/24 00:50:53;;;;;;;13.40;9.73;;;;;;;3.05;98.86;103694.91;4713124;30;20045;-63
2023/01/24 00:53:21;;;;;;;13.18;9.88;;;;;;;3.07;98.39;103692.94;4687945;30;20061;-62
2023/01/24 00:55:50;;;;;;;13.00;9.90;;;;;;;3.10;98.28;103689.94;4720524;30;20049;-65
2023/01/24 00:58:18;;;;;;;13.57;9.85;;;;;;;3.10;97.79;103690.81;4707772;30;20053;-65
2023/01/24 01:00:46;;;;;;;14.57;9.68;;;;;;;3.06;98.82;103688.53;4720926;30;20045;-64
2023/01/24 01:03:19;;;;;;;12.52;9.88;;;;;;;3.08;98.12;103684.72;4723230;30;20075;-62
2023/01/24 01:05:48;;;;;;;12.70;10.35;;;;;;;3.06;97.37;103675.91;4725085;30;20111;-63
2023/01/24 01:08:15;;;;;;;12.57;8.77;;;;;;;3.03;97.71;103678.91;4720578;30;20069;-63
2023/01/24 01:10:44;;;;;;;12.93;9.90;;;;;;;3.02;97.53;103673.66;4704345;30;20255;-61
2023/01/24 01:13:13;;;;;;;11.60;8.85;;;;;;;3.01;97.75;103672.81;4717348;30;20083;-64
2023/01/24 01:15:40;;;;;;;12.48;9.25;;;;;;;3.04;98.23;103674.38;4718978;30;20107;-64
2023/01/24 01:18:08;;;;;;;12.60;9.90;;;;;;;2.99;98.51;103672.97;4702285;30;20499;-63
2023/01/24 01:20:36;;;;;;;16.10;10.98;;;;;;;2.96;98.80;103670.56;4701426;30;20064;-65
2023/01/24 01:23:04;;;;;;;13.00;10.25;;;;;;;3.03;98.39;103670.84;4702759;30;20092;-64
2023/01/24 01:25:32;;;;;;;13.80;10.68;;;;;;;2.99;98.41;103686.44;4714279;30;20088;-62
2023/01/24 01:27:59;;;;;;;12.63;9.18;;;;;;;2.93;98.42;103681.63;4718703;30;20123;-63
2023/01/24 01:30:27;;;;;;;12.00;9.25;;;;;;;2.94;98.92;103688.72;4715496;30;20492;-62
2023/01/24 01:32:55;;;;;;;14.00;10.48;;;;;;;2.97;99.47;103693.81;4715826;30;20057;-62
2023/01/24 01:35:22;;;;;;;13.48;9.55;;;;;;;3.02;98.68;103689.81;4701674;30;20062;-63
2023/01/24 01:37:50;;;;;;;13.02;10.48;;;;;;;2.98;98.99;103681.19;4702318;30;20092;-62
2023/01/24 01:40:19;;;;;;;13.45;10.52;;;;;;;2.92;98.83;103679.94;4687388;30;20132;-63
2023/01/24 01:42:54;;;;;;;13.23;10.02;;;;;;;2.92;99.43;103684.47;4713843;30;20088;-64
2023/01/24 01:45:31;;;;;;;15.25;10.98;;;;;;;2.93;99.87;103681.63;4703852;30;20103;-62
2023/01/24 01:48:01;;;;;;;13.38;10.30;;;;;;;2.96;99.90;103681.34;4687928;30;20068;-62
2023/01/24 01:50:35;;;;;;;13.73;10.95;;;;;;;3.01;100.00;103682.72;4722939;30;20053;-63
2023/01/24 01:53:02;;;;;;;14.93;11.75;;;;;;;3.04;99.18;103687.84;4705397;30;20053;-64
2023/01/24 01:55:33;;;;;;;15.38;10.90;;;;;;;3.02;99.91;103679.06;4715663;30;20088;-64
2023/01/24 01:58:02;;;;;;;15.32;11.23;;;;;;;3.01;100.00;103680.03;4688812;30;20089;-62
2023/01/24 02:00:30;;;;;;;14.95;11.32;;;;;;;2.99;100.00;103681.03;4715738;30;20614;-62
2023/01/24 02:05:57;;;;;;;14.18;11.30;;;;;;;3.06;99.34;103675.91;4718354;30;20053;-65
2023/01/24 02:08:25;;;;;;;13.38;9.85;;;;;;;3.09;99.99;103674.78;4705252;30;20089;-61
2023/01/24 02:13:43;;;;;;;15.80;11.65;;;;;;;3.09;98.80;103669.38;4718882;30;20049;-63
2023/01/24 02:16:13;;;;;;;15.50;12.00;;;;;;;3.05;98.65;103678.75;4717646;30;20068;-63
2023/01/24 02:18:42;;;;;;;15.48;11.80;;;;;;;2.99;99.15;103670.28;4718048;30;20053;-64
2023/01/24 02:21:15;;;;;;;14.85;11.43;;;;;;;3.02;98.97;103670.97;4690485;30;20122;-62
2023/01/24 02:23:46;;;;;;;15.30;11.35;;;;;;;2.98;99.21;103668.59;4716335;30;20061;-65
2023/01/24 02:26:23;;;;;;;14.90;12.35;;;;;;;2.99;99.22;103667.56;4700728;30;20115;-62
2023/01/24 02:29:09;;;;;;;13.80;10.30;;;;;;;2.92;99.37;103677.22;4715005;30;20108;-63
2023/01/24 02:32:00;;;;;;;15.52;11.38;;;;;;;2.84;100.00;103671.75;4695554;30;20075;-62
2023/01/24 02:34:29;;;;;;;12.25;9.50;;;;;;;2.85;99.90;103678.81;4703332;30;20521;-63
2023/01/24 02:37:09;;;;;;;14.68;11.02;;;;;;;2.85;100.00;103684.19;4703751;30;20057;-63
2023/01/24 02:39:43;;;;;;;14.77;11.10;;;;;;;2.82;99.95;103681.81;4717595;30;20092;-63
2023/01/24 02:42:20;;;;;;;14.55;11.27;;;;;;;2.83;100.00;103679.97;4690127;30;20065;-66
2023/01/24 02:45:07;;;;;;;15.88;12.27;;;;;;;2.85;100.00;103684.19;4701837;30;20052;-67
2023/01/24 02:47:39;;;;;;;14.77;11.07;;;;;;;2.80;100.00;103680.25;4706976;30;20057;-63
2023/01/24 02:50:08;;;;;;;14.18;11.05;;;;;;;2.85;100.00;103681.50;4718279;30;20064;-62
2023/01/24 02:55:23;;;;;;;;;;;;;;;2.93;99.75;103673.53;4715105;30;20136;-64
2023/01/24 02:58:06;;;;;;;15.45;12.25;;;;;;;2.87;99.73;103670.59;4717946;30;19937;-63
2023/01/24 03:00:39;;;;;;;14.93;11.55;;;;;;;2.80;100.00;103670.34;4715040;30;20081;-62
2023/01/24 03:03:08;;;;;;;14.45;11.60;;;;;;;2.86;100.00;103675.16;4702920;30;20052;-62
2023/01/24 03:05:55;;;;;;;14.57;11.48;;;;;;;2.87;100.00;103673.28;4703325;30;20064;-62
2023/01/24 03:08:31;;;;;;;15.60;12.00;;;;;;;2.81;100.00;103669.31;4714395;30;20046;-62
2023/01/24 03:11:01;;;;;;;14.10;10.90;;;;;;;2.85;100.00;103672.59;4702625;30;20071;-61
2023/01/24 03:35:55;;;;;;;15.10;11.82;;;;;;;2.95;100.00;103663.47;4717690;30;20128;-63
2023/01/24 03:41:13;;;;;;;15.27;11.77;;;;;;;2.90;100.00;103673.84;4687630;30;20452;-66
2023/01/24 03:43:45;;;;;;;14.98;11.82;;;;;;;2.84;100.00;103671.75;4703205;30;20061;-63
2023/01/24 03:46:14;;;;;;;14.82;11.45;;;;;;;2.78;100.00;103667.78;4714025;30;20492;-63
2023/01/24 03:48:49;;;;;;;15.30;11.63;;;;;;;2.80;100.00;103664.09;4703240;30;20049;-62
2023/01/24 03:54:06;;;;;;;14.15;11.30;;;;;;;2.81;100.00;103666.63;4716944;30;20439;-62
2023/01/24 03:56:43;;;;;;;15.02;11.60;;;;;;;2.79;100.00;103663.25;4716309;30;20128;-63
2023/01/24 03:59:10;;;;;;;15.50;11.77;;;;;;;2.81;100.00;103669.31;4716662;30;20065;-63
2023/01/24 04:01:40;;;;;;;13.35;10.85;;;;;;;2.76;100.00;103669.75;4702916;30;20053;-62
2023/01/24 04:04:18;;;;;;;14.15;11.13;;;;;;;2.80;100.00;103670.34;4714214;30;20056;-64
2023/01/24 04:06:46;;;;;;;14.90;11.85;;;;;;;2.77;100.00;103668.78;4717890;30;20064;-61
2023/01/24 04:09:15;;;;;;;15.25;12.00;;;;;;;2.74;100.00;103671.78;4704109;30;20088;-62
2023/01/24 04:11:44;;;;;;;13.32;11.02;;;;;;;2.82;100.00;103662.13;4714846;30;20103;-62
2023/01/24 04:14:18;;;;;;;13.88;10.80;;;;;;;2.82;100.00;103667.50;4728489;30;20165;-62
2023/01/24 04:16:56;;;;;;;14.35;11.10;;;;;;;2.81;100.00;103668.47;4719810;30;20057;-64
2023/01/24 04:19:32;;;;;;;15.07;11.57;;;;;;;2.78;100.00;103661.53;4718423;30;20057;-62
2023/01/24 04:22:00;;;;;;;14.75;10.43;;;;;;;2.75;100.00;103667.22;4716792;30;20084;-62
2023/01/24 04:24:28;;;;;;;14.38;11.30;;;;;;;2.72;100.00;103667.53;4688190;30;20060;-61
2023/01/24 04:26:55;;;;;;;13.63;11.05;;;;;;;2.68;100.00;103663.41;4701870;30;20080;-63
2023/01/24 04:29:28;;;;;;;14.35;11.30;;;;;;;2.67;100.00;103664.41;4700821;30;20053;-61
2023/01/24 04:31:59;;;;;;;16.17;11.88;;;;;;;2.72;100.00;103670.22;4712849;30;20065;-62
2023/01/24 04:34:45;;;;;;;13.70;10.80;;;;;;;2.72;100.00;103663.00;4689908;30;20069;-62
2023/01/24 04:37:21;;;;;;;15.30;12.47;;;;;;;2.66;100.00;103670.78;4707684;30;20049;-63
2023/01/24 04:39:49;;;;;;;14.60;11.95;;;;;;;2.58;100.00;103678.75;4723580;30;20140;-64
2023/01/24 04:42:17;;;;;;;14.70;11.73;;;;;;;2.51;100.00;103682.00;4719352;30;20410;-64
2023/01/24 04:44:46;;;;;;;16.65;12.73;;;;;;;2.48;100.00;103668.84;4690045;30;20060;-62
2023/01/24 04:47:14;;;;;;;17.05;12.20;;;;;;;2.50;100.00;103683.00;4715761;30;20045;-61
2023/01/24 04:49:43;;;;;;;14.32;11.73;;;;;;;2.54;100.00;103680.88;4708124;30;20048;-63
2023/01/24 04:52:15;;;;;;;14.32;11.02;;;;;;;2.52;100.00;103678.31;4718849;30;20058;-63
2023/01/24 04:54:56;;;;;;;14.52;11.13;;;;;;;2.52;100.00;103672.94;4689706;30;20061;-62
2023/01/24 04:57:24;;;;;;;13.82;10.75;;;;;;;2.58;100.00;103681.44;4714509;30;20084;-60
2023/01/24 04:59:51;;;;;;;14.05;10.00;;;;;;;2.62;100.00;103672.94;4702106;30;20057;-62
2023/01/24 05:02:19;;;;;;;14.77;11.38;;;;;;;2.68;100.00;103682.25;4701959;30;20057;-64
2023/01/24 05:04:47;;;;;;;13.90;11.18;;;;;;;2.69;100.00;103683.94;4717362;30;20060;-63
2023/01/24 05:07:16;;;;;;;14.98;11.80;;;;;;;2.70;100.00;103678.44;4711610;30;20106;-64
2023/01/24 05:09:48;;;;;;;14.80;11.25;;;;;;;2.72;100.00;103675.59;4699907;30;20089;-62
2023/01/24 05:12:16;;;;;;;13.63;10.88;;;;;;;2.68;100.00;103672.34;4714746;30;20578;-61
2023/01/24 05:14:44;;;;;;;13.68;10.23;;;;;;;2.65;100.00;103680.72;4716187;30;20137;-62
2023/01/24 05:17:13;;;;;;;13.75;11.07;;;;;;;2.61;100.00;103681.16;4699855;30;20057;-60
2023/01/24 05:19:41;;;;;;;14.23;10.98;;;;;;;2.65;100.00;103685.25;4717035;30;20060;-62
2023/01/24 05:22:09;;;;;;;14.65;11.57;;;;;;;2.58;100.00;103690.34;4713521;30;20059;-62
2023/01/24 05:24:41;;;;;;;14.68;10.73;;;;;;;2.47;100.00;103685.97;4699913;30;20057;-62
2023/01/24 05:27:10;;;;;;;15.68;12.20;;;;;;;2.47;100.00;103680.59;4707235;30;20057;-62
2023/01/24 05:29:42;;;;;;;13.57;10.85;;;;;;;2.54;100.00;103686.25;4712239;30;20462;-62
2023/01/24 05:32:10;;;;;;;15.77;12.25;;;;;;;2.56;100.00;103684.25;4698971;30;20085;-64
2023/01/24 05:34:37;;;;;;;15.60;12.07;;;;;;;2.52;100.00;103683.69;4718424;30;20073;-66
2023/01/24 05:37:07;;;;;;;15.05;11.70;;;;;;;2.51;100.00;103690.06;4720181;30;20065;-63
2023/01/24 05:39:38;;;;;;;14.50;11.70;;;;;;;2.50;100.00;103685.69;4705499;30;20053;-61
2023/01/24 05:42:06;;;;;;;14.98;11.75;;;;;;;2.58;100.00;103698.44;4717512;30;20065;-62
2023/01/24 05:44:41;;;;;;;16.25;11.80;;;;;;;2.53;100.00;103696.16;4705958;30;20057;-62
2023/01/24 05:47:09;;;;;;;14.38;11.23;;;;;;;2.53;100.00;103700.72;4715740;30;20112;-62
2023/01/24 05:49:41;;;;;;;17.05;12.02;;;;;;;2.55;100.00;103704.94;4712629;30;20128;-62
2023/01/24 05:52:10;;;;;;;14.23;11.60;;;;;;;2.48;100.00;103701.13;4719458;30;20426;-62
2023/01/24 05:54:52;;;;;;;14.15;11.50;;;;;;;2.45;100.00;103708.63;4703063;30;20407;-62
2023/01/24 05:57:25;;;;;;;16.55;13.02;;;;;;;2.47;100.00;103712.88;4715087;30;20063;-63
2023/01/24 06:00:23;;;;;;;15.27;11.55;;;;;;;2.51;100.00;103714.31;4718371;30;20049;-63
2023/01/24 06:03:15;;;;;;;16.30;12.35;;;;;;;2.54;100.00;103707.78;4690762;30;20053;-60
2023/01/24 06:05:50;;;;;;;15.48;12.45;;;;;;;2.56;100.00;103719.25;4718910;30;20049;-62
2023/01/24 06:08:18;;;;;;;16.83;13.38;;;;;;;2.50;100.00;103718.00;4717421;30;20049;-64
2023/01/24 06:10:46;;;;;;;15.85;12.48;;;;;;;2.47;100.00;103715.56;4703084;30;20052;-63
2023/01/24 06:13:14;;;;;;;15.93;12.65;;;;;;;2.48;100.00;103719.13;4717288;30;20157;-62
2023/01/24 06:15:42;;;;;;;15.52;11.98;;;;;;;2.49;100.00;103715.44;4718514;30;21769;-62
2023/01/24 06:18:18;;;;;;;15.10;12.25;;;;;;;2.51;100.00;103718.84;4684353;30;20049;-64
2023/01/24 06:20:49;;;;;;;17.00;13.20;;;;;;;2.42;100.00;103715.16;4719606;30;20061;-64
2023/01/24 06:23:26;;;;;;;14.85;11.13;;;;;;;2.35;100.00;103719.41;4719443;30;20053;-62
2023/01/24 06:26:00;;;;;;;17.08;13.13;;;;;;;2.33;100.00;103719.56;4702441;30;20503;-63
2023/01/24 06:28:28;;;;;;;16.50;13.32;;;;;;;2.32;100.00;103720.53;4724521;30;20114;-61
2023/01/24 06:31:05;;;;;;;14.77;12.52;;;;;;;2.27;100.00;103727.34;4706974;30;20084;-60
2023/01/24 06:33:48;;;;;;;16.53;13.33;;;;;;;2.27;100.00;103721.97;4718378;30;20093;-60
2023/01/24 06:36:25;;;;;;;15.88;12.13;;;;;;;2.16;100.00;103719.41;4718047;30;20124;-61
2023/01/24 06:38:52;;;;;;;;;;;;;;;2.19;100.00;103724.50;4716986;30;20128;-61
2023/01/24 06:41:20;;;;;;;16.25;12.75;;;;;;;2.27;100.00;103732.72;4718736;30;19926;-61
2023/01/24 06:43:48;;;;;;;15.70;12.48;;;;;;;2.32;100.00;103730.44;4063235;30;10000623;-65
2023/01/24 06:46:16;;;;;;;16.35;13.10;;;;;;;2.35;100.00;103730.16;4716020;30;20065;-64
2023/01/24 06:48:44;;;;;;;16.30;13.35;;;;;;;2.34;100.00;103733.84;4714814;30;20503;-64
2023/01/24 06:51:14;;;;;;;14.82;12.40;;;;;;;2.34;100.00;103744.63;4711945;30;20123;-64
2023/01/24 06:53:42;;;;;;;16.33;12.55;;;;;;;2.27;100.00;103740.78;4712468;30;20052;-64
2023/01/24 06:56:17;;;;;;;16.55;13.60;;;;;;;2.16;100.00;103739.06;4716201;30;20151;-63
2023/01/24 06:58:44;;;;;;;14.40;11.15;;;;;;;2.27;100.00;103733.56;4715996;30;20087;-63
2023/01/24 07:01:12;;;;;;;15.98;12.70;;;;;;;2.37;100.00;103732.72;4689087;30;20139;-64
2023/01/24 07:03:40;;;;;;;17.38;13.38;;;;;;;2.41;100.00;103731.47;4709523;30;20559;-66
2023/01/24 07:06:07;;;;;;;15.40;12.52;;;;;;;2.38;100.00;103735.25;4712685;30;20088;-65
2023/01/24 07:08:35;;;;;;;15.05;11.98;;;;;;;2.40;100.00;103735.97;4713785;30;20088;-65
2023/01/24 07:11:03;;;;;;;16.52;12.95;;;;;;;2.46;100.00;103739.94;4700837;30;20072;-64
2023/01/24 07:13:30;;;;;;;17.05;12.82;;;;;;;2.49;100.00;103742.34;4711793;30;20072;-64
2023/01/24 07:16:01;;;;;;;16.70;13.07;;;;;;;2.46;100.00;103748.88;4697879;30;20062;-64
2023/01/24 07:18:29;;;;;;;16.77;13.43;;;;;;;2.43;100.00;103754.53;4709011;30;20056;-63
2023/01/24 07:20:57;;;;;;;16.83;13.68;;;;;;;2.38;100.00;103761.31;4715615;30;20045;-64
2023/01/24 07:23:31;;;;;;;20.23;14.38;;;;;;;2.48;100.00;103757.66;4683272;30;20057;-63
2023/01/24 07:25:59;;;;;;;17.98;11.45;;;;;;;2.58;100.00;103770.25;4714006;30;20080;-62
2023/01/24 07:28:27;;;;;;;17.05;13.23;;;;;;;2.57;100.00;103777.47;4714672;30;20071;-63
2023/01/24 07:30:54;;;;;;;17.83;12.90;;;;;;;2.53;100.00;103771.53;4713886;30;20111;-62
2023/01/24 07:33:22;;;;;;;16.27;13.25;;;;;;;2.55;100.00;103772.25;4700406;30;20063;-64
2023/01/24 07:35:50;;;;;;;14.63;11.20;;;;;;;2.53;100.00;103771.53;4713456;30;20060;-65
2023/01/24 07:38:17;;;;;;;17.02;13.30;;;;;;;2.53;100.00;103773.38;4715400;30;20071;-63
2023/01/24 07:40:45;;;;;;;17.13;13.40;;;;;;;2.49;100.00;103780.03;4714784;30;20855;-64
2023/01/24 07:43:13;;;;;;;17.88;14.15;;;;;;;2.44;100.00;103777.75;4700094;30;20119;-64
2023/01/24 07:45:45;;;;;;;16.73;13.10;;;;;;;2.42;100.00;103782.41;4714135;30;20739;-63
2023/01/24 07:48:13;;;;;;;17.40;14.05;;;;;;;2.41;100.00;103786.13;4713662;30;20061;-60
2023/01/24 07:50:40;;;;;;;18.80;14.90;;;;;;;2.40;100.00;103786.25;4713885;30;20071;-64
2023/01/24 07:53:08;;;;;;;18.20;14.88;;;;;;;2.45;100.00;103779.44;4699807;30;20060;-66
2023/01/24 07:55:36;;;;;;;16.95;13.30;;;;;;;2.37;100.00;103782.00;4714982;30;20491;-65
2023/01/24 07:58:03;;;;;;;17.70;14.00;;;;;;;2.39;100.00;103782.72;4684359;30;20525;-64
2023/01/24 08:00:31;;;;;;;17.88;14.25;;;;;;;2.41;100.00;103788.81;4714680;30;20395;-64
2023/01/24 08:02:59;;;;;;;20.58;16.05;;;;;;;2.30;100.00;103787.09;4715511;30;20049;-63
2023/01/24 08:05:29;;;;;;;19.30;16.52;;;;;;;2.28;100.00;103794.44;4719216;30;20063;-63
2023/01/24 08:07:57;;;;;;;21.83;16.55;;;;;;;2.21;100.00;103792.44;4716985;30;20045;-63
2023/01/24 08:10:25;;;;;;;21.20;16.83;;;;;;;2.14;100.00;103794.84;4703345;30;20068;-64
2023/01/24 08:12:53;;;;;;;20.92;17.30;;;;;;;2.16;100.00;103790.16;4718421;30;20060;-64
2023/01/24 08:15:23;;;;;;;18.92;15.60;;;;;;;2.18;100.00;103790.03;4701196;30;20049;-64
2023/01/24 08:17:51;;;;;;;22.65;15.93;;;;;;;2.24;100.00;103792.19;4714826;30;20053;-66
2023/01/24 08:20:19;;;;;;;21.25;15.52;;;;;;;2.24;100.00;103794.88;4720928;30;20495;-67
2023/01/24 08:22:47;;;;;;;22.75;16.33;;;;;;;2.22;100.00;103794.16;4722050;30;20534;-65
2023/01/24 08:25:25;;;;;;;18.77;14.70;;;;;;;2.21;100.00;103792.44;4692059;30;20053;-63
2023/01/24 08:27:54;;;;;;;19.10;14.55;;;;;;;2.19;100.00;103803.38;4722023;30;20132;-64
2023/01/24 08:30:22;;;;;;;21.17;15.05;;;;;;;2.23;100.00;103798.53;4704628;30;20061;-66
2023/01/24 08:33:02;;;;;;;19.30;14.77;;;;;;;2.25;100.00;103794.72;4718971;30;20128;-69
2023/01/24 08:35:30;;;;;;;18.95;14.93;;;;;;;2.29;100.00;103800.69;4715853;30;20523;-65
2023/01/24 08:37:58;;;;;;;22.15;15.18;;;;;;;2.31;100.00;103809.47;4723567;30;20053;-65
2023/01/24 08:40:26;;;;;;;20.83;15.60;;;;;;;2.37;100.00;103811.59;4723154;30;20049;-65
2023/01/24 08:43:00;;;;;;;21.63;15.73;;;;;;;2.30;100.00;103813.13;4718726;30;20084;-65
2023/01/24 08:45:28;;;;;;;19.40;14.50;;;;;;;2.27;100.00;103813.44;4702761;30;20594;-65
2023/01/24 08:47:56;;;;;;;17.75;13.38;;;;;;;2.28;100.00;103817.81;4718419;30;20056;-65
2023/01/24 08:50:24;;;;;;;21.23;15.63;;;;;;;2.27;100.00;103818.81;4718070;30;20084;-65
2023/01/24 08:52:55;;;;;;;19.75;15.13;;;;;;;2.27;100.00;103824.19;4716878;30;20059;-65
2023/01/24 08:55:24;;;;;;;20.58;14.05;;;;;;;2.27;100.00;103816.97;4703265;30;20056;-64
2023/01/24 08:57:52;;;;;;;19.52;14.50;;;;;;;2.30;100.00;103826.59;4717268;30;20049;-63
2023/01/24 09:00:19;;;;;;;19.30;14.80;;;;;;;2.31;100.00;103831.00;4716600;30;20057;-65
2023/01/24 09:02:47;;;;;;;21.05;15.20;;;;;;;2.32;100.00;103827.31;4702006;30;20061;-64
2023/01/24 09:05:15;;;;;;;19.52;16.00;;;;;;;2.29;100.00;103817.69;4716827;30;20057;-65
2023/01/24 09:07:43;;;;;;;20.20;15.90;;;;;;;2.24;100.00;103827.16;4716666;30;20111;-65
2023/01/24 09:10:11;;;;;;;20.25;16.52;;;;;;;2.05;100.00;103815.34;4717378;30;20080;-65
2023/01/24 09:12:38;;;;;;;20.67;16.25;;;;;;;2.05;100.00;103823.44;4720662;30;20079;-65
2023/01/24 09:15:07;;;;;;;20.13;15.05;;;;;;;2.04;100.00;103829.78;4721293;30;20057;-65
2023/01/24 09:17:36;;;;;;;19.10;14.30;;;;;;;2.05;100.00;103826.13;4705859;30;20557;-64
2023/01/24 09:20:05;;;;;;;20.05;14.45;;;;;;;2.10;100.00;103837.31;4719825;30;20525;-63
2023/01/24 09:22:33;;;;;;;20.48;15.00;;;;;;;2.19;100.00;103826.69;4721277;30;20053;-64
2023/01/24 09:25:03;;;;;;;19.48;15.20;;;;;;;2.22;100.00;103831.81;4711575;30;20061;-64
2023/01/24 09:27:31;;;;;;;17.65;14.15;;;;;;;2.24;100.00;103830.69;4719565;30;20092;-65
2023/01/24 09:29:58;;;;;;;18.77;14.07;;;;;;;2.23;100.00;103836.22;4702441;30;20407;-65
2023/01/24 09:32:26;;;;;;;18.38;14.30;;;;;;;2.21;100.00;103840.88;4718482;30;20088;-65
2023/01/24 09:34:54;;;;;;;17.98;14.25;;;;;;;2.15;100.00;103842.28;4715374;30;20156;-64
2023/01/24 09:37:22;;;;;;;18.73;14.57;;;;;;;2.09;100.00;103843.69;4703446;30;20080;-68
2023/01/24 09:39:50;;;;;;;19.85;14.52;;;;;;;2.10;100.00;103837.31;4702043;30;20062;-64
2023/01/24 09:42:39;;;;;;;19.65;12.52;;;;;;;2.21;100.00;103843.56;4710775;30;20057;-64
2023/01/24 09:45:30;;;;;;;17.40;12.82;;;;;;;2.24;100.00;103849.53;4721712;30;20064;-64
2023/01/24 09:48:00;;;;;;;16.92;12.93;;;;;;;2.20;100.00;103847.25;4721632;30;20057;-65
2023/01/24 09:50:39;;;;;;;20.25;14.27;;;;;;;2.23;100.00;103849.66;4720295;30;20065;-64
2023/01/24 09:53:17;;;;;;;22.70;14.15;;;;;;;2.20;100.00;103847.25;4725430;30;20129;-64
2023/01/24 09:55:44;;;;;;;19.98;13.70;;;;;;;2.07;100.00;103850.19;4719759;30;20071;-63
2023/01/24 09:58:35;;;;;;;16.58;12.10;;;;;;;2.05;100.00;103858.38;4731647;30;20054;-64
2023/01/24 10:01:06;;;;;;;18.92;13.40;;;;;;;2.03;100.00;103854.97;4705531;30;20056;-64
2023/01/24 10:03:34;;;;;;;17.33;12.75;;;;;;;2.04;100.00;103856.66;4703342;30;20499;-63
2023/01/24 10:06:16;;;;;;;22.10;13.15;;;;;;;2.12;100.00;103859.53;4717063;30;20065;-65
2023/01/24 10:09:07;;;;;;;16.70;12.18;;;;;;;2.21;100.00;103863.22;4717101;30;20396;-64
2023/01/24 10:11:55;;;;;;;17.45;12.85;;;;;;;2.16;100.00;103867.34;4716314;30;20119;-64
2023/01/24 10:14:26;;;;;;;17.60;12.15;;;;;;;2.09;100.00;103848.19;4717478;30;20053;-66
2023/01/24 10:16:54;;;;;;;18.05;12.40;;;;;;;2.22;100.00;103856.88;4717088;30;20063;-64
2023/01/24 10:20:14;;;;;;;15.57;11.57;;;;;;;2.31;100.00;103863.28;4717307;30;20059;-64
2023/01/24 10:23:01;;;;;;;16.33;12.57;;;;;;;2.34;100.00;103850.41;4691580;30;20095;-64
2023/01/24 10:25:51;;;;;;;17.77;12.05;;;;;;;2.41;100.00;103856.09;4719312;30;20063;-64
2023/01/24 10:28:51;;;;;;;16.67;12.27;;;;;;;2.44;100.00;103854.94;4720521;30;20049;-64
2023/01/24 10:31:25;;;;;;;16.95;12.18;;;;;;;2.39;100.00;103855.38;4696709;30;20426;-64
2023/01/24 10:34:11;;;;;;;18.75;12.00;;;;;;;2.33;100.00;103850.53;4711543;30;20061;-65
2023/01/24 10:37:10;;;;;;;16.38;11.57;;;;;;;2.30;100.00;103857.03;4703957;30;20111;-64
2023/01/24 10:39:38;;;;;;;17.38;12.45;;;;;;;2.27;100.00;103856.47;4718787;30;20160;-65
2023/01/24 10:42:21;;;;;;;16.00;11.45;;;;;;;2.24;100.00;103856.75;4704498;30;20433;-69
2023/01/24 10:44:49;;;;;;;14.05;9.98;;;;;;;2.30;100.00;103856.19;4719212;30;20407;-64
2023/01/24 10:47:32;;;;;;;17.25;12.32;;;;;;;2.25;100.00;103853.06;4704029;30;20502;-63
2023/01/24 10:50:08;;;;;;;17.52;12.57;;;;;;;2.33;100.00;103847.84;4720332;30;20088;-63
2023/01/24 10:52:36;;;;;;;;;;;;;;;2.37;100.00;103846.56;4719023;30;20079;-62
2023/01/24 10:55:35;;;;;;;16.80;12.32;;;;;;;2.33;100.00;103853.22;4720074;30;19926;-63
2023/01/24 10:58:23;;;;;;;17.27;12.27;;;;;;;2.26;100.00;103855.63;4703867;30;20115;-64
2023/01/24 11:01:23;;;;;;;17.30;12.90;;;;;;;2.21;100.00;103851.63;4719000;30;20057;-64
2023/01/24 11:03:54;;;;;;;19.45;13.05;;;;;;;2.13;100.00;103850.47;4704434;30;20057;-63
2023/01/24 11:06:21;;;;;;;16.48;12.90;;;;;;;2.16;100.00;103837.75;4720645;30;20088;-63
2023/01/24 11:09:04;;;;;;;17.20;13.20;;;;;;;2.17;100.00;103844.84;4719598;30;20049;-65
2023/01/24 11:11:33;;;;;;;16.95;12.88;;;;;;;2.37;100.00;103835.81;4704433;30;20057;-64
2023/01/24 11:14:01;;;;;;;19.13;13.60;;;;;;;2.40;100.00;103829.31;4720373;30;20137;-62
2023/01/24 11:16:42;;;;;;;20.52;12.80;;;;;;;2.37;99.78;103835.81;4703674;30;20414;-64
2023/01/24 11:19:29;;;;;;;16.58;12.50;;;;;;;2.28;99.56;103831.25;4718457;30;20048;-64
2023/01/24 11:22:01;;;;;;;16.90;12.57;;;;;;;2.28;100.00;103829.41;4718806;30;20052;-62
2023/01/24 11:24:30;;;;;;;15.93;11.63;;;;;;;2.35;100.00;103829.72;4717966;30;20052;-64
2023/01/24 11:27:13;;;;;;;16.58;11.88;;;;;;;2.33;99.79;103824.50;4718969;30;20055;-64
2023/01/24 11:29:42;;;;;;;14.77;11.07;;;;;;;2.30;100.00;103818.53;4716161;30;20092;-65
2023/01/24 11:32:38;;;;;;;15.18;10.95;;;;;;;2.31;100.00;103814.84;4707272;30;20546;-62
2023/01/24 11:35:12;;;;;;;;;;;;;;;2.35;100.00;103809.03;4703394;30;20072;-63
2023/01/24 11:38:13;;;;;;;16.65;10.85;;;;;;;2.39;100.00;103816.84;4716455;30;19934;-64
2023/01/24 11:40:59;;;;;;;16.90;11.07;;;;;;;2.41;99.08;103813.03;4716877;30;20056;-65
2023/01/24 11:43:51;;;;;;;16.08;12.45;;;;;;;2.30;99.54;103805.06;4717381;30;20059;-67
2023/01/24 11:46:22;;;;;;;15.52;12.32;;;;;;;2.34;100.00;103806.50;4673211;30;20080;-63
2023/01/24 11:48:56;;;;;;;18.58;12.68;;;;;;;2.38;99.52;103810.59;4703229;30;20050;-63
2023/01/24 11:51:54;;;;;;;15.98;12.57;;;;;;;2.33;99.00;103804.78;4720526;30;20159;-62
2023/01/24 11:54:48;;;;;;;16.27;11.80;;;;;;;2.29;99.63;103800.69;4679833;30;20057;-65
2023/01/24 11:57:19;;;;;;;15.65;11.40;;;;;;;2.26;99.59;103801.81;4720682;30;20418;-62
2023/01/24 11:59:58;;;;;;;14.23;10.32;;;;;;;2.27;99.19;103800.81;4720294;30;20226;-64
2023/01/24 12:02:48;;;;;;;17.70;11.60;;;;;;;2.31;99.61;103793.34;4718768;30;20053;-62
2023/01/24 12:06:02;;;;;;;15.07;11.25;;;;;;;2.39;99.34;103790.78;4719070;30;20064;-63
2023/01/24 12:08:45;;;;;;;15.02;11.32;;;;;;;2.46;99.47;103786.53;4668228;30;20062;-63
2023/01/24 12:11:29;;;;;;;15.55;10.73;;;;;;;2.50;99.78;103776.31;4703684;30;20462;-64
2023/01/24 12:14:22;;;;;;;13.90;10.25;;;;;;;2.51;98.22;103773.50;4710317;30;20068;-64